createdAt,value
2019-05-10T00:03:02.339Z,10.70
2019-05-10T00:06:09.828Z,10.80
2019-05-10T00:08:58.310Z,10.80
2019-05-10T00:11:59.627Z,10.80
2019-05-10T00:14:50.503Z,10.80
2019-05-10T00:17:39.475Z,10.90
2019-05-10T00:20:28.497Z,10.90
2019-05-10T00:23:17.961Z,10.90
2019-05-10T00:26:07.817Z,10.90
2019-05-10T00:28:57.489Z,10.90
2019-05-10T00:31:47.142Z,10.90
2019-05-10T00:34:36.586Z,10.90
2019-05-10T00:37:06.834Z,10.90
2019-05-10T00:39:55.682Z,10.90
2019-05-10T00:42:44.363Z,10.80
2019-05-10T00:45:34.043Z,10.80
2019-05-10T00:48:22.943Z,10.90
2019-05-10T00:51:12.284Z,10.80
2019-05-10T00:54:01.224Z,10.90
2019-05-10T00:56:50.439Z,10.80
2019-05-10T00:59:40.053Z,10.90
2019-05-10T01:02:29.073Z,10.80
2019-05-10T01:05:17.966Z,10.90
2019-05-10T01:08:07.203Z,10.90
2019-05-10T01:10:57.009Z,10.90
2019-05-10T01:13:46.067Z,10.90
2019-05-10T01:16:35.143Z,10.90
2019-05-10T01:19:24.298Z,10.90
2019-05-10T01:22:12.890Z,10.90
2019-05-10T01:25:01.965Z,10.90
2019-05-10T01:27:51.003Z,10.90
2019-05-10T01:30:40.397Z,10.90
2019-05-10T01:33:29.460Z,10.90
2019-05-10T01:36:18.503Z,10.90
2019-05-10T01:39:07.898Z,10.90
2019-05-10T01:41:57.108Z,10.90
2019-05-10T01:44:46.666Z,10.90
2019-05-10T01:47:35.656Z,10.90
2019-05-10T01:50:24.842Z,10.90
2019-05-10T01:53:13.678Z,10.90
2019-05-10T01:56:02.369Z,11.00
2019-05-10T01:58:52.044Z,10.90
2019-05-10T02:01:41.259Z,10.90
2019-05-10T02:04:30.335Z,10.90
2019-05-10T02:07:00.844Z,10.90
2019-05-10T02:09:50.332Z,10.90
2019-05-10T02:12:39.651Z,10.90
2019-05-10T02:15:29.172Z,11.00
2019-05-10T02:18:18.515Z,11.00
2019-05-10T02:21:07.454Z,11.00
2019-05-10T02:23:56.440Z,11.00
2019-05-10T02:26:45.781Z,11.00
2019-05-10T02:29:35.628Z,11.00
2019-05-10T02:32:24.384Z,11.00
2019-05-10T02:35:13.977Z,11.00
2019-05-10T02:38:02.948Z,11.00
2019-05-10T02:40:52.157Z,11.00
2019-05-10T02:43:41.452Z,11.00
2019-05-10T02:46:30.736Z,11.00
2019-05-10T02:49:19.818Z,11.00
2019-05-10T02:52:08.785Z,11.00
2019-05-10T02:54:58.172Z,11.00
2019-05-10T02:57:47.477Z,11.00
2019-05-10T03:00:37.827Z,11.00
2019-05-10T03:03:29.198Z,11.00
2019-05-10T03:06:19.851Z,11.00
2019-05-10T03:09:08.997Z,10.90
2019-05-10T03:12:00.593Z,11.00
2019-05-10T03:14:52.866Z,10.90
2019-05-10T03:17:42.737Z,10.90
2019-05-10T03:20:39.475Z,10.90
2019-05-10T03:23:33.025Z,10.90
2019-05-10T03:26:23.872Z,10.80
2019-05-10T03:29:13.003Z,10.80
2019-05-10T03:32:02.429Z,10.70
2019-05-10T03:34:51.892Z,10.80
2019-05-10T03:37:40.708Z,10.70
2019-05-10T03:40:29.516Z,10.70
2019-05-10T03:43:19.018Z,10.60
2019-05-10T03:46:08.201Z,10.60
2019-05-10T03:48:57.017Z,10.60
2019-05-10T03:51:46.584Z,10.50
2019-05-10T03:54:36.052Z,10.50
2019-05-10T03:57:25.062Z,10.50
2019-05-10T04:00:14.920Z,10.50
2019-05-10T04:03:03.533Z,10.50
2019-05-10T04:05:52.264Z,10.50
2019-05-10T04:08:41.099Z,10.50
2019-05-10T04:11:29.832Z,10.50
2019-05-10T04:14:18.763Z,10.50
2019-05-10T04:17:07.855Z,10.40
2019-05-10T04:19:57.019Z,10.30
2019-05-10T04:22:46.419Z,10.30
2019-05-10T04:25:35.387Z,10.30
2019-05-10T04:28:24.413Z,10.30
2019-05-10T04:31:13.489Z,10.30
2019-05-10T04:34:02.752Z,10.30
2019-05-10T04:36:48.671Z,10.30
2019-05-10T04:39:37.853Z,10.30
2019-05-10T04:42:27.103Z,10.30
2019-05-10T04:45:16.944Z,10.30
2019-05-10T04:48:05.821Z,10.30
2019-05-10T04:50:55.080Z,10.30
2019-05-10T04:53:44.330Z,10.30
2019-05-10T04:56:33.287Z,10.30
2019-05-10T04:59:22.269Z,10.30
2019-05-10T05:02:11.628Z,10.30
2019-05-10T05:05:01.052Z,10.40
2019-05-10T05:07:50.417Z,10.40
2019-05-10T05:10:39.835Z,10.40
2019-05-10T05:13:28.922Z,10.40
2019-05-10T05:15:59.203Z,10.40
2019-05-10T05:18:49.366Z,10.40
2019-05-10T05:21:39.224Z,10.40
2019-05-10T05:24:27.994Z,10.30
2019-05-10T05:27:16.999Z,10.30
2019-05-10T05:29:47.979Z,10.40
2019-05-10T05:32:18.121Z,10.40
2019-05-10T05:35:07.878Z,10.50
2019-05-10T05:37:57.173Z,10.40
2019-05-10T05:40:46.610Z,10.40
2019-05-10T05:43:45.557Z,10.40
2019-05-10T05:46:26.793Z,10.40
2019-05-10T05:49:16.426Z,10.50
2019-05-10T05:52:05.721Z,10.50
2019-05-10T05:54:57.616Z,10.60
2019-05-10T05:57:45.290Z,10.60
2019-05-10T06:00:37.719Z,10.60
2019-05-10T06:03:06.530Z,10.60
2019-05-10T06:05:56.156Z,10.70
2019-05-10T06:08:45.652Z,10.70
2019-05-10T06:11:35.801Z,10.80
2019-05-10T06:14:25.109Z,10.80
2019-05-10T06:17:14.652Z,10.80
2019-05-10T06:20:05.871Z,10.90
2019-05-10T06:23:06.527Z,10.90
2019-05-10T06:25:45.556Z,10.90
2019-05-10T06:28:57.566Z,10.90
2019-05-10T06:31:25.354Z,11.00
2019-05-10T06:34:14.811Z,11.00
2019-05-10T06:37:03.903Z,11.10
2019-05-10T06:39:53.420Z,11.10
2019-05-10T06:42:43.129Z,11.10
2019-05-10T06:45:32.114Z,11.10
2019-05-10T06:48:02.574Z,11.10
2019-05-10T06:50:32.937Z,11.10
2019-05-10T06:53:07.566Z,11.10
2019-05-10T06:55:35.251Z,11.10
2019-05-10T06:58:05.692Z,11.10
2019-05-10T07:00:38.008Z,11.10
2019-05-10T07:03:08.288Z,11.20
2019-05-10T07:05:38.353Z,11.10
2019-05-10T07:08:16.358Z,11.10
2019-05-10T07:10:40.715Z,11.10
2019-05-10T07:13:11.193Z,11.20
2019-05-10T07:15:44.626Z,11.20
2019-05-10T07:18:31.656Z,11.20
2019-05-10T07:21:20.962Z,11.20
2019-05-10T07:24:10.263Z,11.10
2019-05-10T07:27:02.351Z,11.20
2019-05-10T07:29:49.810Z,11.20
2019-05-10T07:32:39.457Z,11.20
2019-05-10T07:35:31.001Z,11.30
2019-05-10T07:38:01.606Z,11.30
2019-05-10T07:40:51.038Z,11.30
2019-05-10T07:43:40.289Z,11.40
2019-05-10T07:46:29.531Z,11.50
2019-05-10T07:49:23.661Z,11.60
2019-05-10T07:52:09.324Z,11.70
2019-05-10T07:54:58.929Z,11.60
2019-05-10T07:57:47.779Z,11.70
2019-05-10T08:00:38.003Z,11.70
2019-05-10T08:03:29.858Z,11.60
2019-05-10T08:06:02.145Z,11.60
2019-05-10T08:08:33.688Z,11.70
2019-05-10T08:11:03.993Z,11.80
2019-05-10T08:13:34.930Z,12.00
2019-05-10T08:16:09.956Z,12.20
2019-05-10T08:19:01.016Z,12.40
2019-05-10T08:21:48.768Z,12.60
2019-05-10T08:24:37.764Z,12.70
2019-05-10T08:27:28.290Z,12.80
2019-05-10T08:30:33.697Z,12.90
2019-05-10T08:33:22.995Z,13.00
2019-05-10T08:36:12.250Z,13.10
2019-05-10T08:39:09.546Z,13.10
2019-05-10T08:42:01.251Z,13.10
2019-05-10T08:44:42.817Z,13.20
2019-05-10T08:47:32.548Z,13.20
2019-05-10T08:50:42.506Z,13.00
2019-05-10T08:53:16.388Z,13.10
2019-05-10T08:56:07.499Z,13.20
2019-05-10T08:58:54.383Z,13.20
2019-05-10T09:01:46.497Z,13.30
2019-05-10T09:04:43.715Z,13.20
2019-05-10T09:07:29.389Z,13.20
2019-05-10T09:10:17.695Z,13.10
2019-05-10T09:13:07.416Z,13.10
2019-05-10T09:15:57.128Z,13.00
2019-05-10T09:18:50.320Z,12.90
2019-05-10T09:21:41.329Z,12.90
2019-05-10T09:24:27.406Z,12.90
2019-05-10T09:27:16.304Z,13.00
2019-05-10T09:30:08.084Z,13.00
2019-05-10T09:33:03.051Z,13.00
2019-05-10T09:35:51.454Z,13.00
2019-05-10T09:38:39.630Z,13.20
2019-05-10T09:41:32.790Z,13.40
2019-05-10T09:44:18.708Z,13.50
2019-05-10T09:47:08.350Z,13.50
2019-05-10T09:49:58.950Z,13.50
2019-05-10T09:52:48.824Z,13.40
2019-05-10T09:55:37.775Z,13.50
2019-05-10T09:58:28.534Z,13.60
2019-05-10T10:01:21.482Z,13.70
2019-05-10T10:04:08.961Z,13.80
2019-05-10T10:06:58.275Z,13.90
2019-05-10T10:09:47.762Z,14.00
2019-05-10T10:12:37.444Z,13.90
2019-05-10T10:15:33.564Z,13.80
2019-05-10T10:18:05.888Z,13.70
2019-05-10T10:20:55.246Z,13.70
2019-05-10T10:23:44.823Z,13.60
2019-05-10T10:26:34.659Z,13.50
2019-05-10T10:29:23.905Z,13.20
2019-05-10T10:32:12.852Z,13.10
2019-05-10T10:35:02.531Z,13.00
2019-05-10T10:37:51.376Z,12.90
2019-05-10T10:40:44.770Z,13.00
2019-05-10T10:43:30.654Z,13.20
2019-05-10T10:46:19.991Z,13.30
2019-05-10T10:49:10.605Z,13.40
2019-05-10T10:52:05.468Z,13.40
2019-05-10T10:54:51.908Z,13.40
2019-05-10T10:57:41.322Z,13.50
2019-05-10T11:00:38.390Z,13.60
2019-05-10T11:03:30.367Z,13.70
2019-05-10T11:06:17.493Z,13.90
2019-05-10T11:09:08.949Z,14.10
2019-05-10T11:12:00.874Z,14.10
2019-05-10T11:14:49.658Z,14.00
2019-05-10T11:17:20.106Z,13.90
2019-05-10T11:20:11.487Z,13.80
2019-05-10T11:23:00.391Z,13.60
2019-05-10T11:25:54.922Z,13.60
2019-05-10T11:28:44.038Z,13.60
2019-05-10T11:31:32.369Z,13.50
2019-05-10T11:34:21.990Z,13.50
2019-05-10T11:37:10.864Z,13.40
2019-05-10T11:40:01.783Z,13.30
2019-05-10T11:42:51.080Z,13.10
2019-05-10T11:45:43.688Z,13.10
2019-05-10T11:48:37.159Z,13.20
2019-05-10T11:51:22.590Z,13.30
2019-05-10T11:54:12.486Z,13.50
2019-05-10T11:57:06.575Z,13.50
2019-05-10T11:59:52.508Z,13.60
2019-05-10T12:03:01.699Z,13.60
2019-05-10T12:05:32.669Z,13.70
2019-05-10T12:08:22.525Z,13.80
2019-05-10T12:11:27.743Z,13.90
2019-05-10T12:14:03.246Z,13.90
2019-05-10T12:16:54.646Z,14.00
2019-05-10T12:19:47.737Z,14.10
2019-05-10T12:22:38.286Z,14.10
2019-05-10T12:25:42.605Z,14.30
2019-05-10T12:28:15.392Z,14.50
2019-05-10T12:31:07.719Z,14.80
2019-05-10T12:34:02.406Z,15.00
2019-05-10T12:36:46.693Z,15.20
2019-05-10T12:39:35.618Z,15.40
2019-05-10T12:42:24.789Z,15.70
2019-05-10T12:45:14.593Z,15.90
2019-05-10T12:48:03.744Z,15.90
2019-05-10T12:50:57.909Z,16.10
2019-05-10T12:53:48.896Z,16.00
2019-05-10T12:56:16.840Z,15.90
2019-05-10T12:58:56.353Z,15.80
2019-05-10T13:01:25.599Z,15.70
2019-05-10T13:04:16.770Z,15.70
2019-05-10T13:07:05.522Z,15.70
2019-05-10T13:10:02.690Z,15.70
2019-05-10T13:12:47.393Z,15.60
2019-05-10T13:15:37.471Z,15.50
2019-05-10T13:18:48.102Z,15.50
2019-05-10T13:21:20.697Z,15.50
2019-05-10T13:24:07.902Z,15.50
2019-05-10T13:26:57.222Z,15.50
2019-05-10T13:29:50.443Z,15.40
2019-05-10T13:32:36.787Z,15.40
2019-05-10T13:35:25.793Z,15.60
2019-05-10T13:38:14.852Z,15.60
2019-05-10T13:41:04.055Z,15.90
2019-05-10T13:43:53.044Z,16.30
2019-05-10T13:46:42.704Z,16.70
2019-05-10T13:49:13.192Z,17.10
2019-05-10T13:51:43.671Z,17.20
2019-05-10T13:54:14.123Z,17.00
2019-05-10T13:56:52.039Z,16.80
2019-05-10T13:59:18.074Z,16.50
2019-05-10T14:01:49.676Z,16.50
2019-05-10T14:04:23.152Z,16.50
2019-05-10T14:06:52.691Z,16.30
2019-05-10T14:09:23.068Z,16.20
2019-05-10T14:11:53.358Z,15.90
2019-05-10T14:14:42.518Z,15.80
2019-05-10T14:17:32.210Z,15.90
2019-05-10T14:20:03.484Z,16.00
2019-05-10T14:22:34.211Z,16.30
2019-05-10T14:25:05.845Z,16.70
2019-05-10T14:27:38.082Z,17.00
2019-05-10T14:30:13.397Z,17.30
2019-05-10T14:32:41.332Z,17.40
2019-05-10T14:35:30.400Z,17.50
2019-05-10T14:38:22.715Z,17.50
2019-05-10T14:41:13.242Z,17.20
2019-05-10T14:44:00.778Z,17.10
2019-05-10T14:46:50.519Z,17.00
2019-05-10T14:49:42.050Z,17.00
2019-05-10T14:52:30.517Z,16.90
2019-05-10T14:55:21.297Z,16.90
2019-05-10T14:58:11.017Z,16.80
2019-05-10T15:01:00.733Z,16.80
2019-05-10T15:03:50.153Z,16.90
2019-05-10T15:06:39.608Z,16.90
2019-05-10T15:09:29.054Z,16.90
2019-05-10T15:12:22.497Z,17.00
2019-05-10T15:15:09.748Z,17.10
2019-05-10T15:18:01.878Z,17.10
2019-05-10T15:20:50.034Z,17.10
2019-05-10T15:23:39.842Z,17.30
2019-05-10T15:26:29.303Z,17.30
2019-05-10T15:28:59.429Z,17.10
2019-05-10T15:31:48.376Z,16.80
2019-05-10T15:34:37.472Z,16.70
2019-05-10T15:37:26.721Z,16.80
2019-05-10T15:40:16.069Z,16.70
2019-05-10T15:43:10.694Z,16.80
2019-05-10T15:45:56.770Z,16.80
2019-05-10T15:48:46.683Z,16.70
2019-05-10T15:51:36.833Z,16.70
2019-05-10T15:54:26.299Z,16.50
2019-05-10T15:57:20.336Z,16.30
2019-05-10T16:00:07.175Z,16.20
2019-05-10T16:02:57.034Z,16.10
2019-05-10T16:05:42.388Z,16.00
2019-05-10T16:08:00.327Z,15.60
2019-05-10T16:10:38.691Z,15.20
2019-05-10T16:13:03.225Z,14.80
2019-05-10T16:15:33.458Z,14.50
2019-05-10T16:18:22.740Z,14.30
2019-05-10T16:21:15.313Z,14.30
2019-05-10T16:24:02.651Z,14.10
2019-05-10T16:26:54.654Z,14.10
2019-05-10T16:29:42.811Z,14.10
2019-05-10T16:32:34.498Z,14.00
2019-05-10T16:35:37.045Z,14.00
2019-05-10T16:38:14.285Z,14.10
2019-05-10T16:41:03.821Z,14.20
2019-05-10T16:43:57.947Z,14.30
2019-05-10T16:46:37.289Z,14.30
2019-05-10T16:49:27.200Z,14.50
2019-05-10T16:52:19.614Z,14.80
2019-05-10T16:55:09.630Z,14.90
2019-05-10T16:57:57.383Z,15.00
2019-05-10T17:00:47.886Z,15.20
2019-05-10T17:03:37.758Z,15.30
2019-05-10T17:06:27.012Z,15.30
2019-05-10T17:09:18.602Z,15.30
2019-05-10T17:12:06.926Z,15.00
2019-05-10T17:15:02.308Z,14.90
2019-05-10T17:17:37.330Z,14.70
2019-05-10T17:20:25.523Z,14.60
2019-05-10T17:23:14.738Z,14.50
2019-05-10T17:26:04.085Z,14.40
2019-05-10T17:28:53.522Z,14.40
2019-05-10T17:31:45.533Z,14.50
2019-05-10T17:34:32.847Z,14.60
2019-05-10T17:37:21.913Z,14.60
2019-05-10T17:40:12.294Z,14.50
2019-05-10T17:43:01.857Z,14.60
2019-05-10T17:45:40.431Z,14.50
2019-05-10T17:48:28.772Z,14.40
2019-05-10T17:51:19.128Z,14.20
2019-05-10T17:54:07.880Z,14.10
2019-05-10T17:56:56.713Z,14.10
2019-05-10T17:59:46.967Z,14.00
2019-05-10T18:02:37.504Z,13.90
2019-05-10T18:05:17.828Z,13.80
2019-05-10T18:08:07.054Z,13.90
2019-05-10T18:10:37.800Z,13.90
2019-05-10T18:13:27.067Z,13.80
2019-05-10T18:16:16.029Z,13.70
2019-05-10T18:19:05.383Z,13.60
2019-05-10T18:21:55.032Z,13.50
2019-05-10T18:24:45.045Z,13.40
2019-05-10T18:27:33.938Z,13.20
2019-05-10T18:30:04.603Z,13.20
2019-05-10T18:32:53.792Z,13.20
2019-05-10T18:35:23.879Z,13.20
2019-05-10T18:38:13.560Z,13.10
2019-05-10T18:41:05.236Z,13.00
2019-05-10T18:43:53.078Z,13.00
2019-05-10T18:46:42.163Z,13.00
2019-05-10T18:49:31.827Z,13.00
2019-05-10T18:52:21.941Z,13.00
2019-05-10T18:55:10.828Z,12.90
2019-05-10T18:58:13.028Z,12.90
2019-05-10T19:01:02.487Z,12.80
2019-05-10T19:03:52.046Z,12.70
2019-05-10T19:06:35.459Z,12.60
2019-05-10T19:09:24.932Z,12.60
2019-05-10T19:12:18.853Z,12.60
2019-05-10T19:15:09.002Z,12.50
2019-05-10T19:17:57.345Z,12.50
2019-05-10T19:20:48.894Z,12.50
2019-05-10T19:23:37.757Z,12.40
2019-05-10T19:26:29.776Z,12.40
2019-05-10T19:29:18.700Z,12.40
2019-05-10T19:31:49.001Z,12.40
2019-05-10T19:34:37.701Z,12.40
2019-05-10T19:37:31.710Z,12.40
2019-05-10T19:40:17.135Z,12.30
2019-05-10T19:43:06.429Z,12.30
2019-05-10T19:47:32.286Z,12.30
2019-05-10T19:48:45.997Z,12.20
2019-05-10T19:51:35.574Z,12.10
2019-05-10T19:54:25.454Z,12.10
2019-05-10T19:57:16.217Z,12.10
2019-05-10T20:00:04.789Z,12.10
2019-05-10T20:02:54.117Z,12.10
2019-05-10T20:05:42.704Z,12.00
2019-05-10T20:08:32.079Z,12.00
2019-05-10T20:11:21.945Z,12.00
2019-05-10T20:14:11.368Z,12.00
2019-05-10T20:17:00.247Z,12.00
2019-05-10T20:19:49.036Z,12.00
2019-05-10T20:22:38.444Z,12.00
2019-05-10T20:25:27.052Z,12.00
2019-05-10T20:28:16.560Z,12.00
2019-05-10T20:31:05.359Z,11.90
2019-05-10T20:33:55.028Z,11.90
2019-05-10T20:36:43.893Z,11.90
2019-05-10T20:39:33.214Z,12.00
2019-05-10T20:42:22.544Z,12.00
2019-05-10T20:45:12.073Z,12.10
2019-05-10T20:48:01.326Z,12.10
2019-05-10T20:50:50.761Z,12.10
2019-05-10T20:53:39.660Z,12.10
2019-05-10T20:56:29.216Z,12.10
2019-05-10T20:59:18.277Z,12.10
2019-05-10T21:02:07.802Z,12.10
2019-05-10T21:04:57.456Z,12.10
2019-05-10T21:07:46.606Z,12.10
2019-05-10T21:10:36.750Z,12.10
2019-05-10T21:13:26.152Z,12.10
2019-05-10T21:16:15.852Z,12.10
2019-05-10T21:19:04.823Z,12.10
2019-05-10T21:21:54.109Z,12.10
2019-05-10T21:24:43.553Z,12.10
2019-05-10T21:27:32.551Z,12.10
2019-05-10T21:30:22.052Z,12.10
2019-05-10T21:33:10.966Z,12.10
2019-05-10T21:36:00.480Z,12.10
2019-05-10T21:38:49.901Z,12.10
2019-05-10T21:41:39.186Z,12.00
2019-05-10T21:44:28.294Z,12.00
2019-05-10T21:47:17.282Z,12.00
2019-05-10T21:50:06.386Z,12.00
2019-05-10T21:52:55.759Z,11.90
2019-05-10T21:55:46.749Z,11.90
2019-05-10T21:58:36.099Z,11.90
2019-05-10T22:01:24.956Z,11.90
2019-05-10T22:04:14.562Z,11.90
2019-05-10T22:07:04.543Z,11.90
2019-05-10T22:09:54.239Z,11.90
2019-05-10T22:12:39.792Z,11.90
2019-05-10T22:15:29.458Z,11.90
2019-05-10T22:18:18.691Z,11.90
2019-05-10T22:21:08.400Z,11.90
2019-05-10T22:23:57.553Z,11.90
2019-05-10T22:26:46.939Z,11.90
2019-05-10T22:29:36.392Z,11.80
2019-05-10T22:32:26.277Z,11.80
2019-05-10T22:35:15.386Z,11.70
2019-05-10T22:38:04.197Z,11.70
2019-05-10T22:40:53.197Z,11.70
2019-05-10T22:43:42.294Z,11.70
2019-05-10T22:46:32.091Z,11.60
2019-05-10T22:49:21.325Z,11.60
2019-05-10T22:52:10.595Z,11.60
2019-05-10T22:55:00.562Z,11.50
2019-05-10T22:57:49.477Z,11.50
2019-05-10T23:00:39.224Z,11.40
2019-05-10T23:03:28.954Z,11.40
2019-05-10T23:06:17.845Z,11.40
2019-05-10T23:09:00.467Z,11.30
2019-05-10T23:11:49.675Z,11.30
2019-05-10T23:14:38.807Z,11.30
2019-05-10T23:17:28.299Z,11.20
2019-05-10T23:20:18.145Z,11.20
2019-05-10T23:23:07.054Z,11.20
2019-05-10T23:25:56.169Z,11.30
2019-05-10T23:28:45.240Z,11.30
2019-05-10T23:31:35.605Z,11.30
2019-05-10T23:34:24.496Z,11.40
2019-05-10T23:37:13.948Z,11.40
2019-05-10T23:40:02.658Z,11.40
2019-05-10T23:42:51.664Z,11.40
2019-05-10T23:45:41.325Z,11.40
2019-05-10T23:48:30.203Z,11.40
2019-05-10T23:51:19.528Z,11.40
2019-05-10T23:54:08.805Z,11.30
2019-05-10T23:56:58.117Z,11.20
2019-05-10T23:59:47.443Z,11.20
